createdAt,value
2022-08-10T00:00:33.333Z,10.30
2022-08-10T00:10:42.148Z,7.30
2022-08-10T00:20:46.662Z,7.40
2022-08-10T00:30:50.104Z,10.00
2022-08-10T00:40:56.309Z,7.90
2022-08-10T00:51:10.980Z,6.40
2022-08-10T01:02:08.499Z,6.30
2022-08-10T01:12:37.658Z,9.90
2022-08-10T01:23:13.537Z,8.30
2022-08-10T01:34:02.053Z,14.00
2022-08-10T01:56:25.729Z,6.80
2022-08-10T02:06:31.234Z,7.60
2022-08-10T02:16:47.148Z,8.20
2022-08-10T02:26:56.395Z,6.80
2022-08-10T02:37:10.582Z,6.40
2022-08-10T02:47:53.313Z,8.20
2022-08-10T02:58:17.036Z,9.50
2022-08-10T03:08:30.028Z,10.10
2022-08-10T03:18:50.310Z,7.60
2022-08-10T03:28:56.281Z,14.00
2022-08-10T03:39:05.432Z,6.80
2022-08-10T03:49:15.126Z,8.20
2022-08-10T03:59:33.210Z,7.30
2022-08-10T04:09:54.731Z,6.70
2022-08-10T04:20:04.003Z,6.30
2022-08-10T04:30:09.593Z,7.30
2022-08-10T04:40:33.293Z,14.40
2022-08-10T04:50:50.363Z,8.40
2022-08-10T05:01:11.312Z,8.10
2022-08-10T05:11:23.778Z,10.60
2022-08-10T05:22:02.505Z,7.30
2022-08-10T05:43:48.902Z,10.70
2022-08-10T05:54:19.433Z,10.60
2022-08-10T06:17:20.316Z,6.00
2022-08-10T06:40:08.575Z,6.30
2022-08-10T06:51:30.373Z,6.80
2022-08-10T07:03:35.968Z,7.40
2022-08-10T07:14:16.046Z,5.60
2022-08-10T07:24:23.508Z,4.70
2022-08-10T08:41:58.913Z,3.50
2022-08-10T08:53:22.437Z,2.80
2022-08-10T09:15:41.568Z,6.60
2022-08-10T09:25:55.661Z,4.50
2022-08-10T09:36:32.911Z,4.20
2022-08-10T09:47:19.883Z,5.30
2022-08-10T09:57:49.041Z,2.90
2022-08-10T10:08:42.204Z,3.90
2022-08-10T10:19:53.211Z,3.20
2022-08-10T10:41:18.374Z,3.30
2022-08-10T10:51:33.218Z,3.70
2022-08-10T11:02:06.190Z,2.30
2022-08-10T11:12:51.682Z,3.90
2022-08-10T11:23:33.642Z,4.80
2022-08-10T11:35:34.599Z,2.00
2022-08-10T11:46:28.000Z,3.50
2022-08-10T11:57:02.575Z,3.50
2022-08-10T12:41:02.828Z,2.50
2022-08-10T13:13:53.554Z,1.60
2022-08-10T13:24:08.468Z,6.10
2022-08-10T13:34:42.611Z,3.00
2022-08-10T13:45:33.393Z,3.90
2022-08-10T13:55:46.047Z,5.70
2022-08-10T14:06:04.558Z,4.00
2022-08-10T14:17:30.250Z,2.10
2022-08-10T14:28:02.461Z,4.70
2022-08-10T14:39:16.603Z,3.90
2022-08-10T14:51:43.932Z,4.40
2022-08-10T15:02:57.931Z,4.60
2022-08-10T15:25:19.453Z,3.10
2022-08-10T16:07:53.441Z,5.50
2022-08-10T16:57:25.406Z,4.90
2022-08-10T18:40:04.071Z,8.90
2022-08-10T18:51:28.365Z,13.50
2022-08-10T19:02:59.872Z,17.20
2022-08-10T19:13:50.796Z,33.20
2022-08-10T19:26:39.395Z,33.40
2022-08-10T19:38:00.116Z,57.20
2022-08-10T19:49:23.221Z,32.90
2022-08-10T20:00:37.063Z,26.00
2022-08-10T20:11:57.082Z,58.40
2022-08-10T20:46:08.765Z,37.30
2022-08-10T20:58:09.706Z,23.10
2022-08-10T21:32:50.961Z,9.00
2022-08-10T22:33:29.502Z,8.30
2022-08-10T22:55:42.622Z,8.80
2022-08-10T23:06:39.378Z,6.80
2022-08-10T23:18:01.165Z,8.60
2022-08-10T23:28:58.312Z,6.20
2022-08-10T23:39:25.394Z,7.10
